Time;durP1;ratioP1;P1;durP2;ratioP2;P2;SDS_P1;SDS_P2;PMS_P1;PMS_P2;Temp;Humidity;BMP_temperature;BMP_pressure;BME280_temperature;BME280_humidity;BME280_pressure;Samples;Min_cycle;Max_cycle;Signal;HPM_P1;HPM_P2
2022/07/17 00:02:23;;;;;;;;;;;;;;;;;;4926865;28;20834;-61
2022/07/17 00:04:51;;;;;;;;;;;;;;;;;;4930544;28;19922;-61
2022/07/17 00:07:19;;;;;;;;;;;;;;;;;;4929841;28;19929;-61
2022/07/17 00:09:44;;;;;;;;;;;;;;;;;;4943428;28;19923;-61
2022/07/17 00:12:12;;;;;;;;;;;;;;;;;;4929571;28;19926;-62
2022/07/17 00:14:38;;;;;;;;;;;;;;;;;;4926709;28;20342;-62
2022/07/17 00:17:05;;;;;;;;;;;;;;;;;;4929271;28;19928;-64
2022/07/17 00:19:30;;;;;;;;;;;;;;;;;;4930825;28;20839;-61
2022/07/17 00:21:57;;;;;;;;;;;;;;;;;;4912088;28;19926;-62
2022/07/17 00:24:26;;;;;;;;;;;;;;;;;;4929893;28;19923;-61
2022/07/17 00:26:51;;;;;;;;;;;;;;;;;;4927199;28;19930;-62
2022/07/17 00:29:16;;;;;;;;;;;;;;;;;;4943485;28;20349;-61
2022/07/17 00:31:42;;;;;;;;;;;;;;;;;;4930239;28;19918;-61
2022/07/17 00:34:10;;;;;;;;;;;;;;;;;;4928837;28;20005;-61
2022/07/17 00:36:36;;;;;;;;;;;;;;;;;;4929702;28;19949;-62
2022/07/17 00:39:03;;;;;;;;;;;;;;;;;;4928762;28;19926;-62
2022/07/17 00:41:29;;;;;;;;;;;;;;;;;;4928853;28;20133;-60
2022/07/17 00:43:54;;;;;;;;;;;;;;;;;;4945104;28;19918;-61
2022/07/17 00:46:20;;;;;;;;;;;;;;;;;;4931168;28;19923;-62
2022/07/17 00:48:45;;;;;;;;;;;;;;;;;;4927517;28;19932;-61
2022/07/17 00:51:13;;;;;;;;;;;;;;;;;;4925882;28;19935;-61
2022/07/17 00:53:41;;;;;;;;;;;;;;;;;;4929242;28;19937;-61
2022/07/17 00:56:07;;;;;;;;;;;;;;;;;;4927746;28;19918;-60
2022/07/17 00:58:32;;;;;;;;;;;;;;;;;;4943043;28;19933;-62
2022/07/17 01:00:57;;;;;;;;;;;;;;;;;;4928500;28;19926;-62
2022/07/17 01:03:23;;;;;;;;;;;;;;;;;;4912913;29;19957;-62
2022/07/17 01:05:49;;;;;;;;;;;;;;;;;;4931654;28;19918;-61
2022/07/17 01:08:14;;;;;;;;;;;;;;;;;;4929544;28;19930;-61
2022/07/17 01:10:39;;;;;;;;;;;;;;;;;;4927527;28;19922;-60
2022/07/17 01:13:04;;;;;;;;;;;;;;;;;;4912587;28;20648;-61
2022/07/17 01:15:32;;;;;;;;;;;;;;;;;;4928532;28;19926;-62
2022/07/17 01:17:57;;;;;;;;;;;;;;;;;;4927197;28;20840;-61
2022/07/17 01:20:23;;;;;;;;;;;;;;;;;;4929205;28;20038;-62
2022/07/17 01:22:49;;;;;;;;;;;;;;;;;;4942677;28;20428;-61
2022/07/17 01:25:14;;;;;;;;;;;;;;;;;;4930654;28;20570;-62
2022/07/17 01:27:42;;;;;;;;;;;;;;;;;;4930171;28;19922;-62
2022/07/17 01:30:10;;;;;;;;;;;;;;;;;;4925506;28;19977;-62
2022/07/17 01:32:35;;;;;;;;;;;;;;;;;;4927196;28;19922;-62
2022/07/17 01:35:01;;;;;;;;;;;;;;;;;;4926706;28;19922;-61
2022/07/17 01:37:26;;;;;;;;;;;;;;;;;;4928391;28;19946;-60
2022/07/17 01:39:55;;;;;;;;;;;;;;;;;;4927106;28;19965;-62
2022/07/17 01:42:21;;;;;;;;;;;;;;;;;;4929787;28;19929;-61
2022/07/17 01:44:48;;;;;;;;;;;;;;;;;;4929531;28;19962;-61
2022/07/17 01:47:17;;;;;;;;;;;;;;;;;;4928840;28;20009;-61
2022/07/17 01:49:45;;;;;;;;;;;;;;;;;;4928946;28;19926;-60
2022/07/17 01:52:10;;;;;;;;;;;;;;;;;;4928374;28;19923;-61
2022/07/17 01:54:38;;;;;;;;;;;;;;;;;;4907807;28;19988;-61
2022/07/17 01:57:03;;;;;;;;;;;;;;;;;;4930120;28;19918;-61
2022/07/17 01:59:35;;;;;;;;;;;;;;;;;;4927066;28;19927;-61
2022/07/17 02:02:00;;;;;;;;;;;;;;;;;;4929825;28;19985;-61
2022/07/17 02:04:30;;;;;;;;;;;;;;;;;;4929043;28;19938;-61
2022/07/17 02:06:55;;;;;;;;;;;;;;;;;;4946007;28;20008;-61
2022/07/17 02:09:23;;;;;;;;;;;;;;;;;;4931445;28;19926;-62
2022/07/17 02:11:51;;;;;;;;;;;;;;;;;;4932080;28;19969;-62
2022/07/17 02:14:16;;;;;;;;;;;;;;;;;;4934037;28;19974;-62
2022/07/17 02:16:42;;;;;;;;;;;;;;;;;;4927949;28;21788;-61
2022/07/17 02:19:09;;;;;;;;;;;;;;;;;;4932797;28;19923;-61
2022/07/17 02:21:35;;;;;;;;;;;;;;;;;;4932937;28;19922;-62
2022/07/17 02:24:03;;;;;;;;;;;;;;;;;;4930374;28;19926;-61
2022/07/17 02:26:28;;;;;;;;;;;;;;;;;;4932113;28;19926;-62
2022/07/17 02:28:58;;;;;;;;;;;;;;;;;;4931216;28;19931;-61
2022/07/17 02:31:23;;;;;;;;;;;;;;;;;;4933202;28;20013;-62
2022/07/17 02:33:49;;;;;;;;;;;;;;;;;;4928037;28;19918;-62
2022/07/17 02:36:16;;;;;;;;;;;;;;;;;;4930018;28;19946;-61
2022/07/17 02:38:42;;;;;;;;;;;;;;;;;;4931655;28;19922;-61
2022/07/17 02:41:07;;;;;;;;;;;;;;;;;;4933215;28;19925;-62
2022/07/17 02:43:35;;;;;;;;;;;;;;;;;;4928349;28;19918;-61
2022/07/17 02:46:00;;;;;;;;;;;;;;;;;;4928267;28;20370;-61
2022/07/17 02:48:25;;;;;;;;;;;;;;;;;;4930917;28;19934;-61
2022/07/17 02:50:53;;;;;;;;;;;;;;;;;;4931380;28;19923;-62
2022/07/17 02:53:18;;;;;;;;;;;;;;;;;;4932775;28;20780;-62
2022/07/17 02:55:44;;;;;;;;;;;;;;;;;;4933119;28;19953;-63
2022/07/17 02:58:11;;;;;;;;;;;;;;;;;;4929700;28;19919;-61
2022/07/17 03:00:37;;;;;;;;;;;;;;;;;;4931554;28;19970;-61
2022/07/17 03:03:05;;;;;;;;;;;;;;;;;;4930900;28;20019;-61
2022/07/17 03:05:32;;;;;;;;;;;;;;;;;;4933621;28;19926;-63
2022/07/17 03:07:58;;;;;;;;;;;;;;;;;;4929071;28;20021;-61
2022/07/17 03:10:26;;;;;;;;;;;;;;;;;;4932371;28;19932;-61
2022/07/17 03:12:54;;;;;;;;;;;;;;;;;;4945969;28;20059;-61
2022/07/17 03:15:19;;;;;;;;;;;;;;;;;;4933106;28;19957;-63
2022/07/17 03:17:44;;;;;;;;;;;;;;;;;;4928819;28;20590;-61
2022/07/17 03:20:10;;;;;;;;;;;;;;;;;;4928632;28;19954;-62
2022/07/17 03:22:36;;;;;;;;;;;;;;;;;;4947100;28;20286;-61
2022/07/17 03:25:04;;;;;;;;;;;;;;;;;;4929605;28;20009;-62
2022/07/17 03:27:32;;;;;;;;;;;;;;;;;;4931424;28;19925;-61
2022/07/17 03:29:57;;;;;;;;;;;;;;;;;;4929309;28;20381;-61
2022/07/17 03:32:25;;;;;;;;;;;;;;;;;;4929682;28;19969;-62
2022/07/17 03:34:50;;;;;;;;;;;;;;;;;;4932085;28;19927;-62
2022/07/17 03:37:16;;;;;;;;;;;;;;;;;;4939627;28;19934;-61
2022/07/17 03:39:41;;;;;;;;;;;;;;;;;;4929131;28;19946;-61
2022/07/17 03:42:07;;;;;;;;;;;;;;;;;;4928674;28;19922;-61
2022/07/17 03:44:32;;;;;;;;;;;;;;;;;;4925712;28;19974;-62
2022/07/17 03:46:57;;;;;;;;;;;;;;;;;;4931621;28;19997;-62
2022/07/17 03:49:22;;;;;;;;;;;;;;;;;;4928173;28;20420;-62
2022/07/17 03:51:48;;;;;;;;;;;;;;;;;;4929865;28;19922;-62
2022/07/17 03:54:13;;;;;;;;;;;;;;;;;;4930807;28;20036;-62
2022/07/17 03:56:44;;;;;;;;;;;;;;;;;;4928941;28;19922;-62
2022/07/17 03:59:12;;;;;;;;;;;;;;;;;;4932200;28;19922;-61
2022/07/17 04:01:39;;;;;;;;;;;;;;;;;;4944290;28;19934;-61
2022/07/17 04:04:04;;;;;;;;;;;;;;;;;;4929240;28;19922;-62
2022/07/17 04:06:30;;;;;;;;;;;;;;;;;;4931787;28;19926;-62
2022/07/17 04:08:55;;;;;;;;;;;;;;;;;;4912622;29;21014;-63
2022/07/17 04:11:20;;;;;;;;;;;;;;;;;;4930652;28;19922;-62
2022/07/17 04:13:46;;;;;;;;;;;;;;;;;;4927342;28;19937;-62
2022/07/17 04:16:12;;;;;;;;;;;;;;;;;;4927076;28;19933;-63
2022/07/17 04:18:40;;;;;;;;;;;;;;;;;;4927406;28;19977;-62
2022/07/17 04:21:08;;;;;;;;;;;;;;;;;;4929512;28;20057;-61
2022/07/17 04:23:34;;;;;;;;;;;;;;;;;;4930449;28;19923;-61
2022/07/17 04:26:01;;;;;;;;;;;;;;;;;;4920949;28;19922;-62
2022/07/17 04:28:26;;;;;;;;;;;;;;;;;;4927733;28;20353;-62
2022/07/17 04:30:52;;;;;;;;;;;;;;;;;;4932066;28;19975;-60
2022/07/17 04:33:17;;;;;;;;;;;;;;;;;;4912438;28;19923;-62
2022/07/17 04:35:43;;;;;;;;;;;;;;;;;;4910724;28;20009;-63
2022/07/17 04:38:09;;;;;;;;;;;;;;;;;;4925392;28;19929;-63
2022/07/17 04:40:34;;;;;;;;;;;;;;;;;;4928568;28;19926;-62
2022/07/17 04:42:59;;;;;;;;;;;;;;;;;;4928539;28;19945;-62
2022/07/17 04:45:27;;;;;;;;;;;;;;;;;;4930976;28;19985;-62
2022/07/17 04:47:52;;;;;;;;;;;;;;;;;;4927331;28;20394;-62
2022/07/17 04:50:17;;;;;;;;;;;;;;;;;;4927486;28;20396;-62
2022/07/17 04:52:43;;;;;;;;;;;;;;;;;;4929659;28;20026;-61
2022/07/17 04:55:08;;;;;;;;;;;;;;;;;;4909587;28;20317;-62
2022/07/17 04:57:34;;;;;;;;;;;;;;;;;;4927605;28;19932;-62
2022/07/17 05:00:01;;;;;;;;;;;;;;;;;;4928693;28;20496;-61
2022/07/17 05:02:27;;;;;;;;;;;;;;;;;;4928448;28;20593;-63
2022/07/17 05:04:52;;;;;;;;;;;;;;;;;;4928680;28;20873;-63
2022/07/17 05:07:20;;;;;;;;;;;;;;;;;;4926087;28;20382;-62
2022/07/17 05:09:45;;;;;;;;;;;;;;;;;;4926239;28;19922;-60
2022/07/17 05:12:10;;;;;;;;;;;;;;;;;;4929730;28;19922;-63
2022/07/17 05:14:36;;;;;;;;;;;;;;;;;;4928628;28;19923;-63
2022/07/17 05:17:02;;;;;;;;;;;;;;;;;;4930704;28;19922;-62
2022/07/17 05:19:27;;;;;;;;;;;;;;;;;;4931095;28;19972;-62
2022/07/17 05:21:53;;;;;;;;;;;;;;;;;;4913489;28;19922;-63
2022/07/17 05:24:18;;;;;;;;;;;;;;;;;;4910008;28;20024;-62
2022/07/17 05:26:46;;;;;;;;;;;;;;;;;;4926397;28;19918;-63
2022/07/17 05:29:14;;;;;;;;;;;;;;;;;;4942941;28;19927;-63
2022/07/17 05:31:40;;;;;;;;;;;;;;;;;;4912370;28;19969;-63
2022/07/17 05:34:08;;;;;;;;;;;;;;;;;;4929583;28;19922;-62
2022/07/17 05:36:33;;;;;;;;;;;;;;;;;;4925257;28;20012;-62
2022/07/17 05:38:59;;;;;;;;;;;;;;;;;;4927917;28;19927;-62
2022/07/17 05:41:24;;;;;;;;;;;;;;;;;;4928926;28;19979;-62
2022/07/17 05:43:49;;;;;;;;;;;;;;;;;;4930820;28;19929;-63
2022/07/17 05:46:14;;;;;;;;;;;;;;;;;;4933180;28;19989;-60
2022/07/17 05:48:40;;;;;;;;;;;;;;;;;;4929329;28;19930;-63
2022/07/17 05:51:05;;;;;;;;;;;;;;;;;;4933020;28;20028;-63
2022/07/17 05:53:31;;;;;;;;;;;;;;;;;;4929715;28;19918;-62
2022/07/17 05:55:57;;;;;;;;;;;;;;;;;;4932929;28;19934;-61
2022/07/17 05:58:26;;;;;;;;;;;;;;;;;;4932338;28;20567;-62
2022/07/17 06:00:54;;;;;;;;;;;;;;;;;;4934332;28;19922;-62
2022/07/17 06:03:20;;;;;;;;;;;;;;;;;;4948577;28;19919;-62
2022/07/17 06:05:45;;;;;;;;;;;;;;;;;;4931573;28;20640;-61
2022/07/17 06:08:12;;;;;;;;;;;;;;;;;;4931432;28;19923;-62
2022/07/17 06:10:38;;;;;;;;;;;;;;;;;;4929967;28;19950;-62
2022/07/17 06:13:03;;;;;;;;;;;;;;;;;;4930551;28;19922;-61
2022/07/17 06:15:28;;;;;;;;;;;;;;;;;;4932838;28;20378;-62
2022/07/17 06:17:56;;;;;;;;;;;;;;;;;;4932691;28;20588;-61
2022/07/17 06:20:21;;;;;;;;;;;;;;;;;;4932057;28;19953;-62
2022/07/17 06:22:46;;;;;;;;;;;;;;;;;;4946177;28;20782;-63
2022/07/17 06:25:12;;;;;;;;;;;;;;;;;;4930399;28;20372;-62
2022/07/17 06:27:37;;;;;;;;;;;;;;;;;;4925306;28;19990;-60
2022/07/17 06:30:02;;;;;;;;;;;;;;;;;;4930643;28;20420;-63
2022/07/17 06:32:27;;;;;;;;;;;;;;;;;;4931172;28;20057;-62
2022/07/17 06:34:52;;;;;;;;;;;;;;;;;;4931063;28;19961;-63
2022/07/17 06:37:18;;;;;;;;;;;;;;;;;;4933551;28;20005;-61
2022/07/17 06:39:43;;;;;;;;;;;;;;;;;;4929920;28;20021;-63
2022/07/17 06:42:12;;;;;;;;;;;;;;;;;;4932430;28;20053;-62
2022/07/17 06:44:38;;;;;;;;;;;;;;;;;;4942959;28;21004;-62
2022/07/17 06:47:05;;;;;;;;;;;;;;;;;;4932772;28;20036;-59
2022/07/17 06:49:31;;;;;;;;;;;;;;;;;;4932171;28;19972;-61
2022/07/17 06:51:58;;;;;;;;;;;;;;;;;;4946072;28;20013;-62
2022/07/17 06:54:25;;;;;;;;;;;;;;;;;;4930934;28;19929;-62
2022/07/17 06:56:51;;;;;;;;;;;;;;;;;;4946099;28;19923;-62
2022/07/17 06:59:24;;;;;;;;;;;;;;;;;;4929737;28;19918;-63
2022/07/17 07:01:50;;;;;;;;;;;;;;;;;;4915413;28;19923;-61
2022/07/17 07:04:18;;;;;;;;;;;;;;;;;;4930961;28;19922;-62
2022/07/17 07:06:45;;;;;;;;;;;;;;;;;;4933045;28;19919;-62
2022/07/17 07:09:14;;;;;;;;;;;;;;;;;;4913814;29;19926;-62
2022/07/17 07:11:41;;;;;;;;;;;;;;;;;;4946138;28;21765;-63
2022/07/17 07:14:07;;;;;;;;;;;;;;;;;;4925911;28;19945;-62
2022/07/17 07:16:32;;;;;;;;;;;;;;;;;;4930061;28;19923;-62
2022/07/17 07:18:58;;;;;;;;;;;;;;;;;;4931813;28;19918;-60
2022/07/17 07:21:26;;;;;;;;;;;;;;;;;;4932237;28;19950;-61
2022/07/17 07:23:51;;;;;;;;;;;;;;;;;;4929114;28;19926;-60
2022/07/17 07:26:16;;;;;;;;;;;;;;;;;;4927769;28;19923;-61
2022/07/17 07:28:44;;;;;;;;;;;;;;;;;;4931026;28;19927;-62
2022/07/17 07:31:10;;;;;;;;;;;;;;;;;;4930287;28;20437;-63
2022/07/17 07:33:35;;;;;;;;;;;;;;;;;;4926305;28;19925;-62
2022/07/17 07:36:01;;;;;;;;;;;;;;;;;;4913407;29;19948;-62
2022/07/17 07:38:28;;;;;;;;;;;;;;;;;;4929625;28;21204;-62
2022/07/17 07:40:54;;;;;;;;;;;;;;;;;;4930997;28;19928;-63
2022/07/17 07:43:23;;;;;;;;;;;;;;;;;;4927122;28;19922;-63
2022/07/17 07:45:49;;;;;;;;;;;;;;;;;;4930588;28;19927;-63
2022/07/17 07:48:14;;;;;;;;;;;;;;;;;;4930493;28;19926;-64
2022/07/17 07:50:45;;;;;;;;;;;;;;;;;;4930344;28;20001;-61
2022/07/17 07:53:13;;;;;;;;;;;;;;;;;;4930283;28;20056;-62
2022/07/17 07:55:39;;;;;;;;;;;;;;;;;;4929231;28;19918;-62
2022/07/17 07:58:04;;;;;;;;;;;;;;;;;;4910973;29;19985;-63
2022/07/17 08:00:32;;;;;;;;;;;;;;;;;;4929724;28;20025;-63
2022/07/17 08:02:58;;;;;;;;;;;;;;;;;;4927234;28;19973;-64
2022/07/17 08:05:23;;;;;;;;;;;;;;;;;;4931195;28;19922;-60
2022/07/17 08:07:51;;;;;;;;;;;;;;;;;;4943684;28;19923;-62
2022/07/17 08:10:16;;;;;;;;;;;;;;;;;;4912839;29;20028;-62
2022/07/17 08:12:41;;;;;;;;;;;;;;;;;;4930900;28;19918;-62
2022/07/17 08:15:09;;;;;;;;;;;;;;;;;;4930076;28;19933;-61
2022/07/17 08:17:37;;;;;;;;;;;;;;;;;;4928477;28;19923;-62
2022/07/17 08:20:02;;;;;;;;;;;;;;;;;;4927988;28;20356;-64
2022/07/17 08:22:30;;;;;;;;;;;;;;;;;;4930719;28;19922;-63
2022/07/17 08:24:56;;;;;;;;;;;;;;;;;;4942774;28;20417;-63
2022/07/17 08:27:22;;;;;;;;;;;;;;;;;;4928018;28;19919;-63
2022/07/17 08:29:47;;;;;;;;;;;;;;;;;;4930802;28;19934;-60
2022/07/17 08:32:12;;;;;;;;;;;;;;;;;;4909736;28;19925;-63
2022/07/17 08:34:37;;;;;;;;;;;;;;;;;;4927937;28;20735;-62
2022/07/17 08:37:03;;;;;;;;;;;;;;;;;;4929370;28;20081;-63
2022/07/17 08:39:28;;;;;;;;;;;;;;;;;;4930553;28;19918;-61
2022/07/17 08:41:53;;;;;;;;;;;;;;;;;;4929400;28;20004;-60
2022/07/17 08:44:18;;;;;;;;;;;;;;;;;;4928392;28;20329;-63
2022/07/17 08:46:44;;;;;;;;;;;;;;;;;;4912399;29;19926;-63
2022/07/17 08:49:09;;;;;;;;;;;;;;;;;;4929587;28;19951;-63
2022/07/17 08:51:39;;;;;;;;;;;;;;;;;;4929114;28;20089;-64
2022/07/17 08:54:04;;;;;;;;;;;;;;;;;;4928971;28;20477;-63
2022/07/17 08:56:34;;;;;;;;;;;;;;;;;;4928125;28;19929;-64
2022/07/17 08:59:00;;;;;;;;;;;;;;;;;;4926243;28;20286;-64
2022/07/17 09:01:25;;;;;;;;;;;;;;;;;;4944391;28;19929;-64
2022/07/17 09:03:53;;;;;;;;;;;;;;;;;;4910135;28;19923;-63
2022/07/17 09:06:18;;;;;;;;;;;;;;;;;;4931036;28;19918;-64
2022/07/17 09:08:43;;;;;;;;;;;;;;;;;;4914411;28;19930;-64
2022/07/17 09:11:09;;;;;;;;;;;;;;;;;;4929998;28;20522;-61
2022/07/17 09:13:34;;;;;;;;;;;;;;;;;;4927747;28;19934;-61
2022/07/17 09:16:00;;;;;;;;;;;;;;;;;;4928088;28;19926;-64
2022/07/17 09:18:32;;;;;;;;;;;;;;;;;;4916366;29;19938;-63
2022/07/17 09:20:58;;;;;;;;;;;;;;;;;;4930508;28;20058;-63
2022/07/17 09:23:28;;;;;;;;;;;;;;;;;;4931986;28;20270;-64
2022/07/17 09:25:53;;;;;;;;;;;;;;;;;;4931852;28;19965;-64
2022/07/17 09:28:21;;;;;;;;;;;;;;;;;;4944819;28;20447;-64
2022/07/17 09:30:46;;;;;;;;;;;;;;;;;;4931610;28;19926;-66
2022/07/17 09:33:11;;;;;;;;;;;;;;;;;;4914821;29;20005;-64
2022/07/17 09:35:37;;;;;;;;;;;;;;;;;;4932729;28;20050;-63
2022/07/17 09:38:02;;;;;;;;;;;;;;;;;;4930318;28;19918;-61
2022/07/17 09:43:17;;;;;;;;;;;;;;;;;;4931733;28;19923;-63
2022/07/17 09:45:42;;;;;;;;;;;;;;;;;;4932349;28;19981;-64
2022/07/17 09:48:10;;;;;;;;;;;;;;;;;;4933000;28;19926;-63
2022/07/17 09:50:36;;;;;;;;;;;;;;;;;;4931067;28;19937;-63
2022/07/17 09:53:01;;;;;;;;;;;;;;;;;;4917268;29;19922;-65
2022/07/17 09:55:27;;;;;;;;;;;;;;;;;;4931470;28;20057;-65
2022/07/17 09:57:55;;;;;;;;;;;;;;;;;;4931708;28;19919;-62
2022/07/17 10:00:22;;;;;;;;;;;;;;;;;;4931868;28;19933;-64
2022/07/17 10:02:47;;;;;;;;;;;;;;;;;;4932222;28;19922;-63
2022/07/17 10:05:15;;;;;;;;;;;;;;;;;;4932639;28;19923;-62
2022/07/17 10:07:45;;;;;;;;;;;;;;;;;;4914030;28;19926;-63
2022/07/17 10:10:10;;;;;;;;;;;;;;;;;;4946663;28;19922;-63
2022/07/17 10:12:38;;;;;;;;;;;;;;;;;;4931369;28;19922;-63
2022/07/17 10:15:04;;;;;;;;;;;;;;;;;;4931455;28;19927;-65
2022/07/17 10:17:29;;;;;;;;;;;;;;;;;;4931819;28;20662;-64
2022/07/17 10:19:55;;;;;;;;;;;;;;;;;;4933763;28;19974;-64
2022/07/17 10:22:22;;;;;;;;;;;;;;;;;;4929525;28;19918;-63
2022/07/17 10:24:49;;;;;;;;;;;;;;;;;;4931782;28;19922;-64
2022/07/17 10:27:17;;;;;;;;;;;;;;;;;;4926594;28;19919;-64
2022/07/17 10:29:44;;;;;;;;;;;;;;;;;;4931713;28;19918;-64
2022/07/17 10:32:10;;;;;;;;;;;;;;;;;;4933842;28;19918;-64
2022/07/17 10:34:38;;;;;;;;;;;;;;;;;;4926888;28;20017;-64
2022/07/17 10:37:06;;;;;;;;;;;;;;;;;;4931817;28;20435;-64
2022/07/17 10:39:35;;;;;;;;;;;;;;;;;;4931373;28;19922;-64
2022/07/17 10:42:02;;;;;;;;;;;;;;;;;;4930827;28;20313;-61
2022/07/17 10:44:31;;;;;;;;;;;;;;;;;;4929213;28;19927;-62
2022/07/17 10:46:57;;;;;;;;;;;;;;;;;;4929821;28;20366;-64
2022/07/17 10:49:22;;;;;;;;;;;;;;;;;;4929267;28;19935;-64
2022/07/17 10:51:47;;;;;;;;;;;;;;;;;;4928411;28;19918;-64
2022/07/17 10:54:16;;;;;;;;;;;;;;;;;;4932734;28;22082;-64
2022/07/17 10:56:41;;;;;;;;;;;;;;;;;;4911855;28;19919;-63
2022/07/17 10:59:12;;;;;;;;;;;;;;;;;;4930588;28;20123;-64
2022/07/17 11:01:37;;;;;;;;;;;;;;;;;;4932069;28;22001;-65
2022/07/17 11:04:06;;;;;;;;;;;;;;;;;;4928599;28;20017;-64
2022/07/17 11:06:31;;;;;;;;;;;;;;;;;;4928623;28;19926;-64
2022/07/17 11:08:57;;;;;;;;;;;;;;;;;;4928720;28;19981;-64
2022/07/17 11:11:25;;;;;;;;;;;;;;;;;;4932798;28;19918;-65
2022/07/17 11:13:50;;;;;;;;;;;;;;;;;;4929823;28;20048;-63
2022/07/17 11:16:15;;;;;;;;;;;;;;;;;;4906455;29;21793;-63
2022/07/17 11:18:43;;;;;;;;;;;;;;;;;;4910496;28;19931;-64
2022/07/17 11:21:09;;;;;;;;;;;;;;;;;;4924595;28;19925;-63
2022/07/17 11:23:34;;;;;;;;;;;;;;;;;;4927936;28;19954;-63
2022/07/17 11:26:00;;;;;;;;;;;;;;;;;;4922318;28;20442;-63
2022/07/17 11:28:26;;;;;;;;;;;;;;;;;;4929162;28;19922;-64
2022/07/17 11:30:51;;;;;;;;;;;;;;;;;;4931678;28;20629;-62
2022/07/17 11:33:16;;;;;;;;;;;;;;;;;;4927937;28;21857;-64
2022/07/17 11:35:42;;;;;;;;;;;;;;;;;;4946286;28;19923;-63
2022/07/17 11:38:09;;;;;;;;;;;;;;;;;;4930716;28;19923;-63
2022/07/17 11:40:35;;;;;;;;;;;;;;;;;;4911979;28;20565;-63
2022/07/17 11:43:04;;;;;;;;;;;;;;;;;;4928212;28;20460;-64
2022/07/17 11:45:32;;;;;;;;;;;;;;;;;;4913470;28;20412;-64
2022/07/17 11:47:58;;;;;;;;;;;;;;;;;;4929005;29;20416;-64
2022/07/17 11:50:23;;;;;;;;;;;;;;;;;;4931110;28;19922;-61
2022/07/17 11:52:49;;;;;;;;;;;;;;;;;;4926239;28;20009;-62
2022/07/17 11:55:15;;;;;;;;;;;;;;;;;;4931117;28;19984;-64
2022/07/17 11:57:40;;;;;;;;;;;;;;;;;;4926467;28;20136;-63
2022/07/17 12:00:14;;;;;;;;;;;;;;;;;;5024116;27;1977061;-64
2022/07/17 12:02:40;;;;;;;;;;;;;;;;;;5079794;28;19920;-62
2022/07/17 12:05:05;;;;;;;;;;;;;;;;;;5072909;28;21687;-65
2022/07/17 12:07:31;;;;;;;;;;;;;;;;;;5076010;28;19920;-65
2022/07/17 12:09:56;;;;;;;;;;;;;;;;;;5094286;28;20012;-65
2022/07/17 12:12:22;;;;;;;;;;;;;;;;;;5093604;28;20038;-65
2022/07/17 12:14:50;;;;;;;;;;;;;;;;;;5094067;28;19919;-64
2022/07/17 12:17:18;;;;;;;;;;;;;;;;;;5093474;28;19931;-63
2022/07/17 12:19:47;;;;;;;;;;;;;;;;;;5094085;28;19923;-62
2022/07/17 12:22:15;;;;;;;;;;;;;;;;;;5075878;28;19959;-62
2022/07/17 12:24:40;;;;;;;;;;;;;;;;;;5074388;28;20024;-65
2022/07/17 12:27:05;;;;;;;;;;;;;;;;;;5072540;28;19926;-64
2022/07/17 12:29:31;;;;;;;;;;;;;;;;;;5089820;28;19927;-61
2022/07/17 12:31:59;;;;;;;;;;;;;;;;;;5076909;28;20368;-63
2022/07/17 12:34:27;;;;;;;;;;;;;;;;;;5074490;28;19923;-62
2022/07/17 12:36:52;;;;;;;;;;;;;;;;;;5061802;28;19920;-62
2022/07/17 12:39:20;;;;;;;;;;;;;;;;;;5073363;28;20035;-64
2022/07/17 12:41:48;;;;;;;;;;;;;;;;;;5073064;28;19973;-63
2022/07/17 12:44:14;;;;;;;;;;;;;;;;;;5093714;28;19972;-64
2022/07/17 12:46:39;;;;;;;;;;;;;;;;;;5063945;28;20290;-64
2022/07/17 12:49:04;;;;;;;;;;;;;;;;;;5075990;28;20824;-62
2022/07/17 12:51:32;;;;;;;;;;;;;;;;;;5074442;28;20063;-64
2022/07/17 12:53:57;;;;;;;;;;;;;;;;;;5090954;28;19919;-63
2022/07/17 12:56:26;;;;;;;;;;;;;;;;;;5077475;28;19922;-63
2022/07/17 12:58:54;;;;;;;;;;;;;;;;;;5086566;28;19924;-63
2022/07/17 13:01:23;;;;;;;;;;;;;;;;;;5063805;28;21549;-63
2022/07/17 13:03:50;;;;;;;;;;;;;;;;;;5047548;28;19973;-61
2022/07/17 13:06:16;;;;;;;;;;;;;;;;;;5061078;28;19919;-63
2022/07/17 13:08:41;;;;;;;;;;;;;;;;;;5062009;28;21950;-62
2022/07/17 13:11:06;;;;;;;;;;;;;;;;;;5066598;28;20056;-64
2022/07/17 13:13:37;;;;;;;;;;;;;;;;;;5048206;28;19970;-62
2022/07/17 13:16:02;;;;;;;;;;;;;;;;;;5031378;28;20472;-63
2022/07/17 13:18:27;;;;;;;;;;;;;;;;;;5065124;28;19924;-63
2022/07/17 13:20:53;;;;;;;;;;;;;;;;;;5067785;28;19921;-63
2022/07/17 13:23:19;;;;;;;;;;;;;;;;;;5028684;28;20466;-64
2022/07/17 13:25:45;;;;;;;;;;;;;;;;;;5050383;28;19954;-64
2022/07/17 13:28:10;;;;;;;;;;;;;;;;;;5043211;28;19920;-62
2022/07/17 13:30:38;;;;;;;;;;;;;;;;;;5046634;28;19920;-63
2022/07/17 13:33:06;;;;;;;;;;;;;;;;;;5047749;28;20619;-63
2022/07/17 13:35:32;;;;;;;;;;;;;;;;;;5065399;28;20530;-63
2022/07/17 13:38:03;;;;;;;;;;;;;;;;;;5048128;28;20096;-63
2022/07/17 13:40:29;;;;;;;;;;;;;;;;;;5045705;28;20850;-62
2022/07/17 13:42:55;;;;;;;;;;;;;;;;;;5062395;28;19920;-62
2022/07/17 13:45:20;;;;;;;;;;;;;;;;;;5045454;28;20542;-64
2022/07/17 13:47:48;;;;;;;;;;;;;;;;;;5046264;28;19920;-63
2022/07/17 13:50:13;;;;;;;;;;;;;;;;;;5045906;28;19926;-59
2022/07/17 13:52:39;;;;;;;;;;;;;;;;;;5043687;28;19981;-64
2022/07/17 13:55:04;;;;;;;;;;;;;;;;;;5047273;28;19927;-64
2022/07/17 13:57:30;;;;;;;;;;;;;;;;;;5063536;28;20006;-66
2022/07/17 13:59:56;;;;;;;;;;;;;;;;;;5029397;28;19934;-63
2022/07/17 14:02:22;;;;;;;;;;;;;;;;;;5034032;28;20571;-64
2022/07/17 14:04:48;;;;;;;;;;;;;;;;;;5063517;28;19923;-62
2022/07/17 14:07:14;;;;;;;;;;;;;;;;;;5065225;28;19920;-60
2022/07/17 14:09:39;;;;;;;;;;;;;;;;;;5043551;28;19920;-63
2022/07/17 14:12:04;;;;;;;;;;;;;;;;;;5044580;28;20031;-62
2022/07/17 14:14:32;;;;;;;;;;;;;;;;;;5045821;28;20050;-63
2022/07/17 14:17:00;;;;;;;;;;;;;;;;;;5046415;28;20630;-64
2022/07/17 14:19:25;;;;;;;;;;;;;;;;;;5063127;28;20147;-62
2022/07/17 14:21:50;;;;;;;;;;;;;;;;;;5046388;28;20634;-63
2022/07/17 14:24:16;;;;;;;;;;;;;;;;;;5031806;28;20012;-63
2022/07/17 14:26:46;;;;;;;;;;;;;;;;;;5047179;28;20397;-62
2022/07/17 14:29:11;;;;;;;;;;;;;;;;;;5063703;28;20010;-61
2022/07/17 14:31:36;;;;;;;;;;;;;;;;;;5061941;28;19927;-63
2022/07/17 14:34:03;;;;;;;;;;;;;;;;;;5061667;28;19934;-60
2022/07/17 14:36:31;;;;;;;;;;;;;;;;;;5030036;28;19921;-61
2022/07/17 14:38:59;;;;;;;;;;;;;;;;;;5063376;28;19924;-63
2022/07/17 14:41:26;;;;;;;;;;;;;;;;;;5047244;28;19915;-63
2022/07/17 14:43:54;;;;;;;;;;;;;;;;;;5065739;28;19919;-63
2022/07/17 14:46:19;;;;;;;;;;;;;;;;;;5030686;28;19920;-61
2022/07/17 14:48:48;;;;;;;;;;;;;;;;;;5060445;28;19972;-61
2022/07/17 14:51:14;;;;;;;;;;;;;;;;;;5064786;28;19916;-61
2022/07/17 14:53:41;;;;;;;;;;;;;;;;;;5049927;28;19925;-62
2022/07/17 14:56:07;;;;;;;;;;;;;;;;;;5063100;28;19965;-63
2022/07/17 14:58:32;;;;;;;;;;;;;;;;;;5045869;28;19923;-61
2022/07/17 15:01:00;;;;;;;;;;;;;;;;;;5028863;28;19973;-60
2022/07/17 15:03:28;;;;;;;;;;;;;;;;;;5029639;28;20408;-61
2022/07/17 15:05:53;;;;;;;;;;;;;;;;;;5046065;28;19930;-61
2022/07/17 15:08:18;;;;;;;;;;;;;;;;;;5062075;28;19927;-62
2022/07/17 15:10:46;;;;;;;;;;;;;;;;;;5043675;28;19916;-59
2022/07/17 15:13:11;;;;;;;;;;;;;;;;;;5038820;28;19924;-59
2022/07/17 15:15:37;;;;;;;;;;;;;;;;;;5062339;28;19927;-60
2022/07/17 15:18:02;;;;;;;;;;;;;;;;;;5062794;28;20275;-60
2022/07/17 15:20:32;;;;;;;;;;;;;;;;;;5041046;28;19955;-60
2022/07/17 15:23:00;;;;;;;;;;;;;;;;;;5063948;28;19923;-61
2022/07/17 15:25:26;;;;;;;;;;;;;;;;;;5046842;28;19916;-61
2022/07/17 15:27:52;;;;;;;;;;;;;;;;;;5061888;28;19921;-62
2022/07/17 15:30:17;;;;;;;;;;;;;;;;;;5061379;28;19916;-61
2022/07/17 15:32:43;;;;;;;;;;;;;;;;;;5060969;28;19965;-61
2022/07/17 15:35:08;;;;;;;;;;;;;;;;;;5041205;28;19978;-61
2022/07/17 15:37:33;;;;;;;;;;;;;;;;;;5042703;28;19920;-61
2022/07/17 15:40:02;;;;;;;;;;;;;;;;;;5041330;28;19928;-62
2022/07/17 15:42:30;;;;;;;;;;;;;;;;;;5062005;28;19995;-61
2022/07/17 15:44:55;;;;;;;;;;;;;;;;;;5042525;28;19946;-58
2022/07/17 15:47:20;;;;;;;;;;;;;;;;;;5063121;28;20338;-61
2022/07/17 15:49:48;;;;;;;;;;;;;;;;;;5044500;28;19926;-60
2022/07/17 15:52:14;;;;;;;;;;;;;;;;;;5062492;28;19920;-60
2022/07/17 15:54:39;;;;;;;;;;;;;;;;;;5029434;28;20366;-62
2022/07/17 15:57:07;;;;;;;;;;;;;;;;;;5046945;28;19920;-60
2022/07/17 15:59:33;;;;;;;;;;;;;;;;;;5045265;28;20355;-60
2022/07/17 16:02:01;;;;;;;;;;;;;;;;;;5063453;28;19965;-61
2022/07/17 16:04:26;;;;;;;;;;;;;;;;;;5043511;28;19956;-60
2022/07/17 16:06:51;;;;;;;;;;;;;;;;;;5044748;28;19923;-61
2022/07/17 16:09:18;;;;;;;;;;;;;;;;;;5062815;28;20010;-61
2022/07/17 16:11:43;;;;;;;;;;;;;;;;;;5043504;28;20347;-61
2022/07/17 16:14:09;;;;;;;;;;;;;;;;;;5043294;28;20042;-61
2022/07/17 16:16:34;;;;;;;;;;;;;;;;;;5061166;28;19962;-61
2022/07/17 16:19:01;;;;;;;;;;;;;;;;;;5028217;28;20496;-60
2022/07/17 16:21:27;;;;;;;;;;;;;;;;;;5060220;28;20034;-60
2022/07/17 16:23:52;;;;;;;;;;;;;;;;;;5061029;28;19923;-61
2022/07/17 16:26:18;;;;;;;;;;;;;;;;;;5043902;28;21247;-60
2022/07/17 16:28:46;;;;;;;;;;;;;;;;;;5044531;28;19916;-60
2022/07/17 16:31:14;;;;;;;;;;;;;;;;;;5061488;28;19967;-60
2022/07/17 16:33:40;;;;;;;;;;;;;;;;;;5060114;28;19920;-61
2022/07/17 16:36:10;;;;;;;;;;;;;;;;;;5044016;28;19969;-60
2022/07/17 16:38:35;;;;;;;;;;;;;;;;;;5040581;28;20321;-60
2022/07/17 16:41:01;;;;;;;;;;;;;;;;;;5062873;28;19969;-61
2022/07/17 16:43:29;;;;;;;;;;;;;;;;;;5043434;28;19966;-59